Main page
METAR-TAF:

METAR-TAF

Airports :

Brunei International Airport

Brunei, Brunei

latitude: 04-56N, longitude: 114-56E, elevation: 22 m

Current weather observation

The report was made 31 minutes ago, at 05:00 UTC
Wind 7 kt from the North/Northeast
Temperature 34°C
Humidity 60%
Pressure 1007 hPa
Visibility 10 km or more
Few clouds at a height of 1600 ft
Broken clouds at a height of 30000 ft

METAR: WBSB 240500Z 02007KT 9999 FEW016 BKN300 34/25 Q1007 NOSIG

Time: 13:31 (05:31 UTC)

Forecast

The report was made 6 hours and 31 minutes ago, at 23:00 UTC
Forecast valid from 24 at 00 UTC to 25 at 06 UTC
Wind 3 kt from the South/Southeast
Visibility 10 km or more
Few clouds at a height of 1500 ft
Becoming
from 24 at 03 UTC to 24 at 05 UTC
Wind 10 kt from the Northwest
Scattered clouds at a height of 1600 ft
Few clouds at a height of 1700 ft, Cumulonimbus.

TAF: WBSB 232300Z 2400/2506 16003KT 9999 FEW015 BECMG 2403/2405 32010KT SCT016 FEW017CB

Weather observations and forecasts of more than 4000 airports (METAR and TAF reports).

The available stations are represented by yellow and red dots on the map.

Hover mouse over dot to see the name of the station.

Then click to see weather observations and forecasts.

To change the map : click on the green buttons with a black cross to zoom in, on the green button with a dash to zoom out, or on the green arrows for adjacent maps.


METAR-TAF: